sensor_id;sensor_type;location;lat;lon;timestamp;P1;durP1;ratioP1;P2;durP2;ratioP2
19205;SDS011;59358;52.134;5.596;2023-08-08T00:01:14;21.48;;;12.50;;
19205;SDS011;59358;52.134;5.596;2023-08-08T00:03:41;20.25;;;12.30;;
19205;SDS011;59358;52.134;5.596;2023-08-08T00:06:08;27.38;;;12.20;;
19205;SDS011;59358;52.134;5.596;2023-08-08T00:08:34;19.52;;;10.82;;
19205;SDS011;59358;52.134;5.596;2023-08-08T00:11:02;21.45;;;11.75;;
19205;SDS011;59358;52.134;5.596;2023-08-08T00:13:29;21.23;;;11.18;;
19205;SDS011;59358;52.134;5.596;2023-08-08T00:15:57;27.80;;;12.13;;
19205;SDS011;59358;52.134;5.596;2023-08-08T00:18:24;18.80;;;9.85;;
19205;SDS011;59358;52.134;5.596;2023-08-08T00:20:50;22.55;;;10.60;;
19205;SDS011;59358;52.134;5.596;2023-08-08T00:23:18;16.15;;;9.20;;
19205;SDS011;59358;52.134;5.596;2023-08-08T00:25:44;21.92;;;10.55;;
19205;SDS011;59358;52.134;5.596;2023-08-08T00:28:14;17.88;;;10.02;;
19205;SDS011;59358;52.134;5.596;2023-08-08T00:30:41;25.65;;;10.48;;
19205;SDS011;59358;52.134;5.596;2023-08-08T00:33:09;22.33;;;10.25;;
19205;SDS011;59358;52.134;5.596;2023-08-08T00:35:36;26.20;;;9.98;;
19205;SDS011;59358;52.134;5.596;2023-08-08T00:38:03;25.63;;;10.57;;
19205;SDS011;59358;52.134;5.596;2023-08-08T00:40:30;21.60;;;10.18;;
19205;SDS011;59358;52.134;5.596;2023-08-08T00:42:57;15.68;;;9.18;;
19205;SDS011;59358;52.134;5.596;2023-08-08T00:45:24;22.65;;;9.00;;
19205;SDS011;59358;52.134;5.596;2023-08-08T00:47:51;25.20;;;10.52;;
19205;SDS011;59358;52.134;5.596;2023-08-08T00:50:19;18.45;;;8.85;;
19205;SDS011;59358;52.134;5.596;2023-08-08T00:52:47;20.42;;;8.88;;
19205;SDS011;59358;52.134;5.596;2023-08-08T00:55:14;24.42;;;8.75;;
19205;SDS011;59358;52.134;5.596;2023-08-08T00:57:42;20.02;;;8.30;;
19205;SDS011;59358;52.134;5.596;2023-08-08T01:00:09;21.88;;;8.75;;
19205;SDS011;59358;52.134;5.596;2023-08-08T01:02:36;20.38;;;9.18;;
19205;SDS011;59358;52.134;5.596;2023-08-08T01:05:04;16.50;;;7.78;;
19205;SDS011;59358;52.134;5.596;2023-08-08T01:07:36;20.23;;;8.77;;
19205;SDS011;59358;52.134;5.596;2023-08-08T01:10:08;18.08;;;7.90;;
19205;SDS011;59358;52.134;5.596;2023-08-08T01:12:38;28.08;;;9.70;;
19205;SDS011;59358;52.134;5.596;2023-08-08T01:15:08;15.68;;;7.85;;
19205;SDS011;59358;52.134;5.596;2023-08-08T01:17:36;27.83;;;8.43;;
19205;SDS011;59358;52.134;5.596;2023-08-08T01:20:04;24.85;;;9.70;;
19205;SDS011;59358;52.134;5.596;2023-08-08T01:22:36;20.17;;;9.10;;
19205;SDS011;59358;52.134;5.596;2023-08-08T01:25:07;21.90;;;8.75;;
19205;SDS011;59358;52.134;5.596;2023-08-08T01:27:35;23.83;;;9.13;;
19205;SDS011;59358;52.134;5.596;2023-08-08T01:30:02;20.98;;;9.20;;
19205;SDS011;59358;52.134;5.596;2023-08-08T01:32:30;20.33;;;8.65;;
19205;SDS011;59358;52.134;5.596;2023-08-08T01:34:56;22.80;;;9.43;;
19205;SDS011;59358;52.134;5.596;2023-08-08T01:37:25;24.50;;;8.68;;
19205;SDS011;59358;52.134;5.596;2023-08-08T01:39:58;17.45;;;7.85;;
19205;SDS011;59358;52.134;5.596;2023-08-08T01:42:28;22.13;;;8.88;;
19205;SDS011;59358;52.134;5.596;2023-08-08T01:44:55;14.48;;;7.68;;
19205;SDS011;59358;52.134;5.596;2023-08-08T01:47:22;23.63;;;8.25;;
19205;SDS011;59358;52.134;5.596;2023-08-08T01:49:49;21.25;;;8.20;;
19205;SDS011;59358;52.134;5.596;2023-08-08T01:52:16;26.58;;;9.02;;
19205;SDS011;59358;52.134;5.596;2023-08-08T01:54:43;26.08;;;8.98;;
19205;SDS011;59358;52.134;5.596;2023-08-08T01:57:10;22.50;;;7.60;;
19205;SDS011;59358;52.134;5.596;2023-08-08T01:59:38;26.90;;;9.23;;
19205;SDS011;59358;52.134;5.596;2023-08-08T02:02:05;19.40;;;8.52;;
19205;SDS011;59358;52.134;5.596;2023-08-08T02:04:32;24.85;;;9.02;;
19205;SDS011;59358;52.134;5.596;2023-08-08T02:06:59;18.27;;;8.60;;
19205;SDS011;59358;52.134;5.596;2023-08-08T02:09:26;28.38;;;8.77;;
19205;SDS011;59358;52.134;5.596;2023-08-08T02:11:53;18.17;;;8.95;;
19205;SDS011;59358;52.134;5.596;2023-08-08T02:14:20;19.85;;;8.30;;
19205;SDS011;59358;52.134;5.596;2023-08-08T02:16:48;28.00;;;9.43;;
19205;SDS011;59358;52.134;5.596;2023-08-08T02:19:14;21.70;;;9.05;;
19205;SDS011;59358;52.134;5.596;2023-08-08T02:21:42;25.40;;;8.45;;
19205;SDS011;59358;52.134;5.596;2023-08-08T02:24:09;27.08;;;9.60;;
19205;SDS011;59358;52.134;5.596;2023-08-08T02:26:35;24.25;;;9.55;;
19205;SDS011;59358;52.134;5.596;2023-08-08T02:29:02;22.65;;;9.27;;
19205;SDS011;59358;52.134;5.596;2023-08-08T02:31:29;21.38;;;8.82;;
19205;SDS011;59358;52.134;5.596;2023-08-08T02:33:57;23.40;;;8.30;;
19205;SDS011;59358;52.134;5.596;2023-08-08T02:36:24;25.08;;;9.05;;
19205;SDS011;59358;52.134;5.596;2023-08-08T02:38:51;26.92;;;8.73;;
19205;SDS011;59358;52.134;5.596;2023-08-08T02:41:19;20.45;;;9.55;;
19205;SDS011;59358;52.134;5.596;2023-08-08T02:43:46;26.02;;;9.55;;
19205;SDS011;59358;52.134;5.596;2023-08-08T02:46:13;33.33;;;10.40;;
19205;SDS011;59358;52.134;5.596;2023-08-08T02:48:39;28.23;;;10.48;;
19205;SDS011;59358;52.134;5.596;2023-08-08T02:51:07;25.75;;;10.40;;
19205;SDS011;59358;52.134;5.596;2023-08-08T02:53:34;19.95;;;10.00;;
19205;SDS011;59358;52.134;5.596;2023-08-08T02:56:01;23.83;;;9.50;;
19205;SDS011;59358;52.134;5.596;2023-08-08T02:58:28;26.08;;;10.38;;
19205;SDS011;59358;52.134;5.596;2023-08-08T03:00:55;23.48;;;10.15;;
19205;SDS011;59358;52.134;5.596;2023-08-08T03:03:22;29.67;;;10.95;;
19205;SDS011;59358;52.134;5.596;2023-08-08T03:05:49;28.85;;;10.90;;
19205;SDS011;59358;52.134;5.596;2023-08-08T03:08:17;29.20;;;11.27;;
19205;SDS011;59358;52.134;5.596;2023-08-08T03:10:44;26.88;;;10.88;;
19205;SDS011;59358;52.134;5.596;2023-08-08T03:13:11;27.00;;;11.70;;
19205;SDS011;59358;52.134;5.596;2023-08-08T03:15:38;23.88;;;11.32;;
19205;SDS011;59358;52.134;5.596;2023-08-08T03:18:04;27.40;;;11.35;;
19205;SDS011;59358;52.134;5.596;2023-08-08T03:20:31;27.13;;;11.68;;
19205;SDS011;59358;52.134;5.596;2023-08-08T03:22:58;24.35;;;10.07;;
19205;SDS011;59358;52.134;5.596;2023-08-08T03:25:29;32.08;;;10.90;;
19205;SDS011;59358;52.134;5.596;2023-08-08T03:27:56;23.45;;;12.38;;
19205;SDS011;59358;52.134;5.596;2023-08-08T03:30:23;27.58;;;11.68;;
19205;SDS011;59358;52.134;5.596;2023-08-08T03:32:49;22.35;;;11.70;;
19205;SDS011;59358;52.134;5.596;2023-08-08T03:35:16;20.08;;;10.85;;
19205;SDS011;59358;52.134;5.596;2023-08-08T03:37:43;21.67;;;11.60;;
19205;SDS011;59358;52.134;5.596;2023-08-08T03:40:11;24.40;;;10.38;;
19205;SDS011;59358;52.134;5.596;2023-08-08T03:42:40;28.25;;;11.48;;
19205;SDS011;59358;52.134;5.596;2023-08-08T03:45:07;24.80;;;11.52;;
19205;SDS011;59358;52.134;5.596;2023-08-08T03:47:35;22.05;;;12.00;;
19205;SDS011;59358;52.134;5.596;2023-08-08T03:50:02;22.58;;;11.13;;
19205;SDS011;59358;52.134;5.596;2023-08-08T03:52:29;24.20;;;11.95;;
19205;SDS011;59358;52.134;5.596;2023-08-08T03:54:59;23.20;;;12.00;;
19205;SDS011;59358;52.134;5.596;2023-08-08T03:57:26;26.13;;;11.63;;
19205;SDS011;59358;52.134;5.596;2023-08-08T03:59:54;20.75;;;12.18;;
19205;SDS011;59358;52.134;5.596;2023-08-08T04:02:21;20.63;;;11.38;;
19205;SDS011;59358;52.134;5.596;2023-08-08T04:04:48;27.00;;;10.55;;
19205;SDS011;59358;52.134;5.596;2023-08-08T04:07:15;34.28;;;13.43;;
19205;SDS011;59358;52.134;5.596;2023-08-08T04:09:41;23.67;;;10.88;;
19205;SDS011;59358;52.134;5.596;2023-08-08T04:12:08;23.75;;;11.45;;
19205;SDS011;59358;52.134;5.596;2023-08-08T04:14:35;18.40;;;11.80;;
19205;SDS011;59358;52.134;5.596;2023-08-08T04:17:04;26.02;;;12.98;;
19205;SDS011;59358;52.134;5.596;2023-08-08T04:19:31;27.35;;;12.70;;
19205;SDS011;59358;52.134;5.596;2023-08-08T04:21:58;26.20;;;11.75;;
19205;SDS011;59358;52.134;5.596;2023-08-08T04:24:25;27.08;;;12.65;;
19205;SDS011;59358;52.134;5.596;2023-08-08T04:26:52;20.83;;;11.50;;
19205;SDS011;59358;52.134;5.596;2023-08-08T04:29:18;24.08;;;12.15;;
19205;SDS011;59358;52.134;5.596;2023-08-08T04:31:45;28.35;;;12.13;;
19205;SDS011;59358;52.134;5.596;2023-08-08T04:34:14;23.55;;;11.95;;
19205;SDS011;59358;52.134;5.596;2023-08-08T04:36:42;27.20;;;11.82;;
19205;SDS011;59358;52.134;5.596;2023-08-08T04:39:09;24.00;;;12.27;;
19205;SDS011;59358;52.134;5.596;2023-08-08T04:41:35;27.67;;;12.27;;
19205;SDS011;59358;52.134;5.596;2023-08-08T04:44:02;28.00;;;14.00;;
19205;SDS011;59358;52.134;5.596;2023-08-08T04:46:29;22.80;;;12.65;;
19205;SDS011;59358;52.134;5.596;2023-08-08T04:48:56;22.73;;;12.35;;
19205;SDS011;59358;52.134;5.596;2023-08-08T04:51:25;25.65;;;12.18;;
19205;SDS011;59358;52.134;5.596;2023-08-08T04:53:52;23.08;;;11.75;;
19205;SDS011;59358;52.134;5.596;2023-08-08T04:56:18;29.08;;;11.85;;
19205;SDS011;59358;52.134;5.596;2023-08-08T04:58:45;19.30;;;11.07;;
19205;SDS011;59358;52.134;5.596;2023-08-08T05:01:12;21.60;;;10.77;;
19205;SDS011;59358;52.134;5.596;2023-08-08T05:03:40;22.65;;;10.65;;
19205;SDS011;59358;52.134;5.596;2023-08-08T05:06:07;17.63;;;9.73;;
19205;SDS011;59358;52.134;5.596;2023-08-08T05:08:36;20.40;;;9.88;;
19205;SDS011;59358;52.134;5.596;2023-08-08T05:11:02;17.48;;;9.10;;
19205;SDS011;59358;52.134;5.596;2023-08-08T05:13:29;20.33;;;9.43;;
19205;SDS011;59358;52.134;5.596;2023-08-08T05:15:56;19.17;;;9.52;;
19205;SDS011;59358;52.134;5.596;2023-08-08T05:18:23;16.90;;;9.40;;
19205;SDS011;59358;52.134;5.596;2023-08-08T05:20:50;18.42;;;9.43;;
19205;SDS011;59358;52.134;5.596;2023-08-08T05:23:17;20.33;;;9.25;;
19205;SDS011;59358;52.134;5.596;2023-08-08T05:25:45;16.63;;;8.75;;
19205;SDS011;59358;52.134;5.596;2023-08-08T05:28:12;15.35;;;8.65;;
19205;SDS011;59358;52.134;5.596;2023-08-08T05:30:39;15.63;;;8.23;;
19205;SDS011;59358;52.134;5.596;2023-08-08T05:33:06;15.45;;;8.90;;
19205;SDS011;59358;52.134;5.596;2023-08-08T05:35:32;22.30;;;8.52;;
19205;SDS011;59358;52.134;5.596;2023-08-08T05:37:59;18.10;;;8.70;;
19205;SDS011;59358;52.134;5.596;2023-08-08T05:40:26;14.68;;;8.63;;
19205;SDS011;59358;52.134;5.596;2023-08-08T05:42:54;16.23;;;8.52;;
19205;SDS011;59358;52.134;5.596;2023-08-08T05:45:21;24.13;;;8.65;;
19205;SDS011;59358;52.134;5.596;2023-08-08T05:47:48;17.38;;;8.35;;
19205;SDS011;59358;52.134;5.596;2023-08-08T05:50:15;18.17;;;8.80;;
19205;SDS011;59358;52.134;5.596;2023-08-08T05:52:42;21.65;;;8.93;;
19205;SDS011;59358;52.134;5.596;2023-08-08T05:55:09;22.48;;;8.77;;
19205;SDS011;59358;52.134;5.596;2023-08-08T05:57:36;17.58;;;8.07;;
19205;SDS011;59358;52.134;5.596;2023-08-08T06:00:05;14.07;;;7.80;;
19205;SDS011;59358;52.134;5.596;2023-08-08T06:02:35;16.17;;;7.53;;
19205;SDS011;59358;52.134;5.596;2023-08-08T06:05:02;16.08;;;7.78;;
19205;SDS011;59358;52.134;5.596;2023-08-08T06:07:30;15.32;;;7.32;;
19205;SDS011;59358;52.134;5.596;2023-08-08T06:09:57;20.20;;;7.05;;
19205;SDS011;59358;52.134;5.596;2023-08-08T06:12:24;12.10;;;6.70;;
19205;SDS011;59358;52.134;5.596;2023-08-08T06:14:51;19.08;;;8.18;;
19205;SDS011;59358;52.134;5.596;2023-08-08T06:17:19;16.35;;;6.45;;
19205;SDS011;59358;52.134;5.596;2023-08-08T06:19:48;12.50;;;6.10;;
19205;SDS011;59358;52.134;5.596;2023-08-08T06:22:15;10.65;;;4.85;;
19205;SDS011;59358;52.134;5.596;2023-08-08T06:24:42;5.65;;;3.60;;
19205;SDS011;59358;52.134;5.596;2023-08-08T06:27:09;9.65;;;4.30;;
19205;SDS011;59358;52.134;5.596;2023-08-08T06:29:37;8.82;;;4.00;;
19205;SDS011;59358;52.134;5.596;2023-08-08T06:32:04;10.20;;;4.28;;
19205;SDS011;59358;52.134;5.596;2023-08-08T06:34:32;11.48;;;4.75;;
19205;SDS011;59358;52.134;5.596;2023-08-08T06:36:59;7.78;;;3.03;;
19205;SDS011;59358;52.134;5.596;2023-08-08T06:39:26;11.25;;;3.10;;
19205;SDS011;59358;52.134;5.596;2023-08-08T06:41:53;9.68;;;3.00;;
19205;SDS011;59358;52.134;5.596;2023-08-08T06:44:20;9.43;;;2.85;;
19205;SDS011;59358;52.134;5.596;2023-08-08T06:46:47;6.57;;;3.17;;
19205;SDS011;59358;52.134;5.596;2023-08-08T06:49:14;5.00;;;2.75;;
19205;SDS011;59358;52.134;5.596;2023-08-08T06:51:42;9.38;;;2.35;;
19205;SDS011;59358;52.134;5.596;2023-08-08T06:54:09;3.28;;;2.28;;
19205;SDS011;59358;52.134;5.596;2023-08-08T06:56:36;6.57;;;2.08;;
19205;SDS011;59358;52.134;5.596;2023-08-08T06:59:03;9.50;;;2.42;;
19205;SDS011;59358;52.134;5.596;2023-08-08T07:01:30;5.88;;;2.10;;
19205;SDS011;59358;52.134;5.596;2023-08-08T07:03:57;5.00;;;2.22;;
19205;SDS011;59358;52.134;5.596;2023-08-08T07:06:23;10.70;;;3.00;;
19205;SDS011;59358;52.134;5.596;2023-08-08T07:08:52;9.95;;;2.38;;
19205;SDS011;59358;52.134;5.596;2023-08-08T07:11:19;5.35;;;2.20;;
19205;SDS011;59358;52.134;5.596;2023-08-08T07:13:47;5.00;;;1.77;;
19205;SDS011;59358;52.134;5.596;2023-08-08T07:16:14;4.55;;;1.75;;
19205;SDS011;59358;52.134;5.596;2023-08-08T07:18:40;4.32;;;2.30;;
19205;SDS011;59358;52.134;5.596;2023-08-08T07:21:07;5.07;;;2.00;;
19205;SDS011;59358;52.134;5.596;2023-08-08T07:23:34;5.32;;;2.00;;
19205;SDS011;59358;52.134;5.596;2023-08-08T07:26:02;4.63;;;1.55;;
19205;SDS011;59358;52.134;5.596;2023-08-08T07:28:29;6.68;;;1.63;;
19205;SDS011;59358;52.134;5.596;2023-08-08T07:30:56;5.40;;;1.55;;
19205;SDS011;59358;52.134;5.596;2023-08-08T07:33:23;4.65;;;1.83;;
19205;SDS011;59358;52.134;5.596;2023-08-08T07:35:50;8.18;;;1.60;;
19205;SDS011;59358;52.134;5.596;2023-08-08T07:38:17;5.70;;;1.30;;
19205;SDS011;59358;52.134;5.596;2023-08-08T07:40:44;4.53;;;1.65;;
19205;SDS011;59358;52.134;5.596;2023-08-08T07:43:13;7.65;;;1.60;;
19205;SDS011;59358;52.134;5.596;2023-08-08T07:45:40;4.47;;;1.60;;
19205;SDS011;59358;52.134;5.596;2023-08-08T07:48:07;5.88;;;1.42;;
19205;SDS011;59358;52.134;5.596;2023-08-08T07:50:35;5.32;;;1.48;;
19205;SDS011;59358;52.134;5.596;2023-08-08T07:53:01;5.90;;;1.98;;
19205;SDS011;59358;52.134;5.596;2023-08-08T07:55:28;2.95;;;1.60;;
19205;SDS011;59358;52.134;5.596;2023-08-08T07:57:56;5.22;;;1.10;;
19205;SDS011;59358;52.134;5.596;2023-08-08T08:00:24;3.90;;;1.35;;
19205;SDS011;59358;52.134;5.596;2023-08-08T08:02:51;3.75;;;1.40;;
19205;SDS011;59358;52.134;5.596;2023-08-08T08:05:18;7.97;;;1.20;;
19205;SDS011;59358;52.134;5.596;2023-08-08T08:07:45;2.72;;;1.20;;
19205;SDS011;59358;52.134;5.596;2023-08-08T08:10:12;5.50;;;0.90;;
19205;SDS011;59358;52.134;5.596;2023-08-08T08:12:40;4.10;;;1.05;;
19205;SDS011;59358;52.134;5.596;2023-08-08T08:15:08;3.83;;;1.00;;
19205;SDS011;59358;52.134;5.596;2023-08-08T08:17:37;2.03;;;1.10;;
19205;SDS011;59358;52.134;5.596;2023-08-08T08:20:05;2.47;;;1.17;;
19205;SDS011;59358;52.134;5.596;2023-08-08T08:22:37;2.75;;;0.95;;
19205;SDS011;59358;52.134;5.596;2023-08-08T08:25:04;3.03;;;1.02;;
19205;SDS011;59358;52.134;5.596;2023-08-08T08:27:33;6.15;;;1.17;;
19205;SDS011;59358;52.134;5.596;2023-08-08T08:30:01;4.45;;;1.10;;
19205;SDS011;59358;52.134;5.596;2023-08-08T08:32:28;2.72;;;0.90;;
19205;SDS011;59358;52.134;5.596;2023-08-08T08:34:59;1.13;;;0.77;;
19205;SDS011;59358;52.134;5.596;2023-08-08T08:37:27;3.90;;;0.90;;
19205;SDS011;59358;52.134;5.596;2023-08-08T08:39:54;3.20;;;1.48;;
19205;SDS011;59358;52.134;5.596;2023-08-08T08:42:21;4.00;;;1.20;;
19205;SDS011;59358;52.134;5.596;2023-08-08T08:44:49;1.75;;;0.80;;
19205;SDS011;59358;52.134;5.596;2023-08-08T08:47:17;2.97;;;0.90;;
19205;SDS011;59358;52.134;5.596;2023-08-08T08:49:46;2.13;;;0.98;;
19205;SDS011;59358;52.134;5.596;2023-08-08T08:52:14;3.03;;;1.20;;
19205;SDS011;59358;52.134;5.596;2023-08-08T08:54:42;1.88;;;1.20;;
19205;SDS011;59358;52.134;5.596;2023-08-08T08:57:08;4.95;;;1.80;;
19205;SDS011;59358;52.134;5.596;2023-08-08T08:59:35;2.55;;;1.25;;
19205;SDS011;59358;52.134;5.596;2023-08-08T09:02:02;3.22;;;0.90;;
19205;SDS011;59358;52.134;5.596;2023-08-08T09:04:30;1.35;;;0.65;;
19205;SDS011;59358;52.134;5.596;2023-08-08T09:06:57;2.22;;;0.80;;
19205;SDS011;59358;52.134;5.596;2023-08-08T09:09:30;4.28;;;0.80;;
19205;SDS011;59358;52.134;5.596;2023-08-08T09:11:58;4.18;;;0.77;;
19205;SDS011;59358;52.134;5.596;2023-08-08T09:14:25;2.53;;;0.90;;
19205;SDS011;59358;52.134;5.596;2023-08-08T09:16:53;4.05;;;0.88;;
19205;SDS011;59358;52.134;5.596;2023-08-08T09:19:22;5.30;;;1.42;;
19205;SDS011;59358;52.134;5.596;2023-08-08T09:21:50;4.15;;;1.17;;
19205;SDS011;59358;52.134;5.596;2023-08-08T09:24:18;3.13;;;1.00;;
19205;SDS011;59358;52.134;5.596;2023-08-08T09:26:46;3.53;;;0.80;;
19205;SDS011;59358;52.134;5.596;2023-08-08T09:29:14;5.45;;;0.73;;
19205;SDS011;59358;52.134;5.596;2023-08-08T09:31:40;1.83;;;0.65;;
19205;SDS011;59358;52.134;5.596;2023-08-08T09:34:07;2.05;;;1.05;;
19205;SDS011;59358;52.134;5.596;2023-08-08T09:36:34;1.52;;;0.70;;
19205;SDS011;59358;52.134;5.596;2023-08-08T09:39:01;1.15;;;0.80;;
19205;SDS011;59358;52.134;5.596;2023-08-08T09:41:29;2.80;;;1.10;;
19205;SDS011;59358;52.134;5.596;2023-08-08T09:43:58;1.67;;;0.80;;
19205;SDS011;59358;52.134;5.596;2023-08-08T09:46:28;1.58;;;0.80;;
19205;SDS011;59358;52.134;5.596;2023-08-08T09:48:56;3.20;;;0.70;;
19205;SDS011;59358;52.134;5.596;2023-08-08T09:51:24;1.45;;;0.68;;
19205;SDS011;59358;52.134;5.596;2023-08-08T09:53:52;1.33;;;0.60;;
19205;SDS011;59358;52.134;5.596;2023-08-08T09:56:20;2.50;;;0.90;;
19205;SDS011;59358;52.134;5.596;2023-08-08T09:58:48;2.42;;;0.93;;
19205;SDS011;59358;52.134;5.596;2023-08-08T10:01:16;2.03;;;0.93;;
19205;SDS011;59358;52.134;5.596;2023-08-08T10:03:45;2.05;;;0.73;;
19205;SDS011;59358;52.134;5.596;2023-08-08T10:06:12;1.65;;;0.73;;
19205;SDS011;59358;52.134;5.596;2023-08-08T10:08:39;2.60;;;1.00;;
19205;SDS011;59358;52.134;5.596;2023-08-08T10:11:08;1.30;;;0.80;;
19205;SDS011;59358;52.134;5.596;2023-08-08T10:13:36;2.85;;;1.10;;
19205;SDS011;59358;52.134;5.596;2023-08-08T10:16:04;3.42;;;1.42;;
19205;SDS011;59358;52.134;5.596;2023-08-08T10:18:35;1.23;;;0.68;;
19205;SDS011;59358;52.134;5.596;2023-08-08T10:21:03;1.73;;;0.80;;
19205;SDS011;59358;52.134;5.596;2023-08-08T10:23:35;3.05;;;0.95;;
19205;SDS011;59358;52.134;5.596;2023-08-08T10:26:03;4.32;;;1.10;;
19205;SDS011;59358;52.134;5.596;2023-08-08T10:28:31;5.35;;;1.25;;
19205;SDS011;59358;52.134;5.596;2023-08-08T10:31:00;4.97;;;1.00;;
19205;SDS011;59358;52.134;5.596;2023-08-08T10:33:40;3.83;;;0.90;;
19205;SDS011;59358;52.134;5.596;2023-08-08T10:36:08;2.95;;;0.95;;
19205;SDS011;59358;52.134;5.596;2023-08-08T10:38:39;2.05;;;0.90;;
19205;SDS011;59358;52.134;5.596;2023-08-08T10:41:08;3.45;;;1.20;;
19205;SDS011;59358;52.134;5.596;2023-08-08T10:43:37;2.72;;;1.02;;
19205;SDS011;59358;52.134;5.596;2023-08-08T10:46:06;3.47;;;1.23;;
19205;SDS011;59358;52.134;5.596;2023-08-08T10:48:33;2.50;;;0.93;;
19205;SDS011;59358;52.134;5.596;2023-08-08T10:51:02;1.80;;;0.80;;
19205;SDS011;59358;52.134;5.596;2023-08-08T10:53:33;1.80;;;1.02;;
19205;SDS011;59358;52.134;5.596;2023-08-08T10:56:03;2.13;;;1.00;;
19205;SDS011;59358;52.134;5.596;2023-08-08T10:58:35;3.00;;;1.13;;
19205;SDS011;59358;52.134;5.596;2023-08-08T11:01:03;4.03;;;1.40;;
19205;SDS011;59358;52.134;5.596;2023-08-08T11:03:33;1.35;;;1.13;;
19205;SDS011;59358;52.134;5.596;2023-08-08T11:06:02;2.05;;;1.23;;
19205;SDS011;59358;52.134;5.596;2023-08-08T11:08:30;1.52;;;1.00;;
19205;SDS011;59358;52.134;5.596;2023-08-08T11:10:58;0.98;;;0.85;;
19205;SDS011;59358;52.134;5.596;2023-08-08T11:13:25;1.80;;;0.75;;
19205;SDS011;59358;52.134;5.596;2023-08-08T11:15:52;1.20;;;1.05;;
19205;SDS011;59358;52.134;5.596;2023-08-08T11:18:19;3.83;;;0.90;;
19205;SDS011;59358;52.134;5.596;2023-08-08T11:20:46;2.00;;;0.70;;
19205;SDS011;59358;52.134;5.596;2023-08-08T11:23:15;2.72;;;1.15;;
19205;SDS011;59358;52.134;5.596;2023-08-08T11:25:44;3.35;;;1.00;;
19205;SDS011;59358;52.134;5.596;2023-08-08T11:28:12;4.07;;;1.42;;
19205;SDS011;59358;52.134;5.596;2023-08-08T11:30:40;2.47;;;0.88;;
19205;SDS011;59358;52.134;5.596;2023-08-08T11:33:08;2.83;;;1.10;;
19205;SDS011;59358;52.134;5.596;2023-08-08T11:35:36;1.40;;;0.93;;
19205;SDS011;59358;52.134;5.596;2023-08-08T11:38:04;2.35;;;0.70;;
19205;SDS011;59358;52.134;5.596;2023-08-08T11:40:33;1.58;;;0.93;;
19205;SDS011;59358;52.134;5.596;2023-08-08T11:43:00;3.53;;;1.35;;
19205;SDS011;59358;52.134;5.596;2023-08-08T11:45:27;3.90;;;1.25;;
19205;SDS011;59358;52.134;5.596;2023-08-08T11:47:55;1.77;;;1.02;;
19205;SDS011;59358;52.134;5.596;2023-08-08T11:50:23;1.30;;;0.90;;
19205;SDS011;59358;52.134;5.596;2023-08-08T11:52:52;4.90;;;0.80;;
19205;SDS011;59358;52.134;5.596;2023-08-08T11:55:20;3.28;;;0.90;;
19205;SDS011;59358;52.134;5.596;2023-08-08T11:57:50;1.38;;;1.00;;
19205;SDS011;59358;52.134;5.596;2023-08-08T12:00:18;1.80;;;0.98;;
19205;SDS011;59358;52.134;5.596;2023-08-08T12:02:45;3.20;;;0.88;;
19205;SDS011;59358;52.134;5.596;2023-08-08T12:05:13;1.13;;;0.90;;
19205;SDS011;59358;52.134;5.596;2023-08-08T12:07:42;1.25;;;0.90;;
19205;SDS011;59358;52.134;5.596;2023-08-08T12:10:13;3.00;;;1.17;;
19205;SDS011;59358;52.134;5.596;2023-08-08T12:12:41;4.63;;;1.45;;
19205;SDS011;59358;52.134;5.596;2023-08-08T12:15:10;2.00;;;0.77;;
19205;SDS011;59358;52.134;5.596;2023-08-08T12:17:38;5.60;;;1.08;;
19205;SDS011;59358;52.134;5.596;2023-08-08T12:20:06;1.55;;;0.90;;
19205;SDS011;59358;52.134;5.596;2023-08-08T12:22:34;2.53;;;1.00;;
19205;SDS011;59358;52.134;5.596;2023-08-08T12:25:02;1.40;;;0.82;;
19205;SDS011;59358;52.134;5.596;2023-08-08T12:27:29;2.97;;;0.98;;
19205;SDS011;59358;52.134;5.596;2023-08-08T12:29:56;1.85;;;0.80;;
19205;SDS011;59358;52.134;5.596;2023-08-08T12:32:24;3.88;;;1.10;;
19205;SDS011;59358;52.134;5.596;2023-08-08T12:34:53;2.05;;;1.00;;
19205;SDS011;59358;52.134;5.596;2023-08-08T12:37:21;1.30;;;0.93;;
19205;SDS011;59358;52.134;5.596;2023-08-08T12:39:48;2.08;;;1.00;;
19205;SDS011;59358;52.134;5.596;2023-08-08T12:42:15;1.30;;;0.80;;
19205;SDS011;59358;52.134;5.596;2023-08-08T12:44:42;2.20;;;1.08;;
19205;SDS011;59358;52.134;5.596;2023-08-08T12:47:09;2.75;;;1.35;;
19205;SDS011;59358;52.134;5.596;2023-08-08T12:49:38;4.95;;;0.88;;
19205;SDS011;59358;52.134;5.596;2023-08-08T12:52:05;1.98;;;0.75;;
19205;SDS011;59358;52.134;5.596;2023-08-08T12:54:32;2.45;;;0.88;;
19205;SDS011;59358;52.134;5.596;2023-08-08T12:57:01;2.40;;;1.00;;
19205;SDS011;59358;52.134;5.596;2023-08-08T12:59:28;3.38;;;0.90;;
19205;SDS011;59358;52.134;5.596;2023-08-08T13:01:54;3.72;;;1.20;;
19205;SDS011;59358;52.134;5.596;2023-08-08T13:04:21;2.42;;;1.17;;
19205;SDS011;59358;52.134;5.596;2023-08-08T13:06:49;1.38;;;0.82;;
19205;SDS011;59358;52.134;5.596;2023-08-08T13:09:16;4.22;;;1.17;;
19205;SDS011;59358;52.134;5.596;2023-08-08T13:11:43;3.35;;;1.02;;
19205;SDS011;59358;52.134;5.596;2023-08-08T13:14:10;2.03;;;1.00;;
19205;SDS011;59358;52.134;5.596;2023-08-08T13:16:37;1.35;;;0.80;;
19205;SDS011;59358;52.134;5.596;2023-08-08T13:19:04;4.38;;;1.55;;
19205;SDS011;59358;52.134;5.596;2023-08-08T13:21:31;1.80;;;1.05;;
19205;SDS011;59358;52.134;5.596;2023-08-08T13:23:59;1.92;;;0.90;;
19205;SDS011;59358;52.134;5.596;2023-08-08T13:26:26;1.73;;;0.88;;
19205;SDS011;59358;52.134;5.596;2023-08-08T13:28:53;4.22;;;1.10;;
19205;SDS011;59358;52.134;5.596;2023-08-08T13:31:20;2.42;;;1.23;;
19205;SDS011;59358;52.134;5.596;2023-08-08T13:33:47;2.90;;;1.00;;
19205;SDS011;59358;52.134;5.596;2023-08-08T13:36:14;4.07;;;1.30;;
19205;SDS011;59358;52.134;5.596;2023-08-08T13:38:41;2.15;;;1.10;;
19205;SDS011;59358;52.134;5.596;2023-08-08T13:41:09;1.33;;;0.98;;
19205;SDS011;59358;52.134;5.596;2023-08-08T13:43:36;4.57;;;1.10;;
19205;SDS011;59358;52.134;5.596;2023-08-08T13:46:03;4.00;;;1.10;;
19205;SDS011;59358;52.134;5.596;2023-08-08T13:48:32;2.42;;;1.10;;
19205;SDS011;59358;52.134;5.596;2023-08-08T13:51:00;3.08;;;1.30;;
19205;SDS011;59358;52.134;5.596;2023-08-08T13:53:27;2.63;;;1.23;;
19205;SDS011;59358;52.134;5.596;2023-08-08T13:55:54;3.65;;;1.10;;
19205;SDS011;59358;52.134;5.596;2023-08-08T13:58:23;1.98;;;1.02;;
19205;SDS011;59358;52.134;5.596;2023-08-08T14:00:50;3.33;;;1.05;;
19205;SDS011;59358;52.134;5.596;2023-08-08T14:03:17;4.30;;;1.30;;
19205;SDS011;59358;52.134;5.596;2023-08-08T14:05:44;4.00;;;1.00;;
19205;SDS011;59358;52.134;5.596;2023-08-08T14:08:11;2.22;;;1.05;;
19205;SDS011;59358;52.134;5.596;2023-08-08T14:10:38;1.52;;;0.90;;
19205;SDS011;59358;52.134;5.596;2023-08-08T14:13:05;2.75;;;1.10;;
19205;SDS011;59358;52.134;5.596;2023-08-08T14:15:33;4.07;;;1.13;;
19205;SDS011;59358;52.134;5.596;2023-08-08T14:18:00;3.58;;;1.00;;
19205;SDS011;59358;52.134;5.596;2023-08-08T14:20:27;2.42;;;1.15;;
19205;SDS011;59358;52.134;5.596;2023-08-08T14:22:53;1.92;;;1.00;;
19205;SDS011;59358;52.134;5.596;2023-08-08T14:25:21;1.75;;;1.10;;
19205;SDS011;59358;52.134;5.596;2023-08-08T14:27:48;2.15;;;1.50;;
19205;SDS011;59358;52.134;5.596;2023-08-08T14:30:15;4.22;;;1.40;;
19205;SDS011;59358;52.134;5.596;2023-08-08T14:32:44;1.90;;;1.10;;
19205;SDS011;59358;52.134;5.596;2023-08-08T14:35:11;2.45;;;1.10;;
19205;SDS011;59358;52.134;5.596;2023-08-08T14:37:38;2.17;;;1.05;;
19205;SDS011;59358;52.134;5.596;2023-08-08T14:40:05;3.75;;;1.35;;